Accueil
METAR-TAF:

METAR-TAF

Aéroports :

Aéroport Léonard-de-Vinci de Rome Fiumicino

Rome-Fiumicino, Italie

latitude: 41-48N, longitude: 012-14E, altitude: 2 m

Observation

Le bulletin a été fait il y a 14 minutes, à 03:50 UTC
Vent 5 kt de nord-est
Température 21°C
Humidité 83%
Pression 1014 hPa
Visibilité 10 km ou plus
pas de nuages en-dessous de 1500 mètres et pas de cumulonimbus.

METAR: LIRF 230350Z 04005KT CAVOK 21/18 Q1014 NOSIG

Heure: 06:04 (04:04 UTC)

Prévision

Le bulletin a été fait il y a 5 heures et 4 minutes, à 23:00 UTC
Prévision valable du 23 à 00 UTC au 24 à 06 UTC
Vent 7 kt de est
Visibilité 10 km ou plus
Quelques nuages à une hauteur de 4000 ft
Evoluant progressivement
du 23 à 08 UTC au 23 à 10 UTC
Vent 10 kt de ouest/sud-ouest
Evoluant progressivement
du 23 à 15 UTC au 23 à 17 UTC
Vent 5 kt de direction variable

TAF: LIRF 222300Z 2300/2406 08007KT 9999 FEW040 BECMG 2308/2310 24010KT BECMG 2315/2317 VRB05KT

Observations et prévisions météorologiques de plus de 4000 aéroports (messages METAR et TAF).

Les stations disponibles sont représentées par des disques jaunes et rouges sur la carte.

Passer la souris dessus pour voir le nom de la station.

Cliquer dessus pour voir les observations et prévisions météorologiques.

Pour changer de carte: cliquez sur les boutons verts avec une croix noire pour zoomer, sur le bouton vert avec un tiret pour effectuer un zoom arrière, ou sur les flèches vertes pour les cartes adjacentes.


METAR-TAF: